Home > Products > Valid Products > TAF

000
FTUS46 KPDT 060500
TAFALW
TAF
KALW 060520Z 0606/0706 12007KT P6SM BKN200
     FM061800 29005KT P6SM BKN200=



000
FTUS46 KPDT 060500
TAFDLS
TAF
KDLS 060520Z 0606/0706 VRB04KT P6SM BKN200
     FM062100 32006KT P6SM SCT200=



000
FTUS46 KPDT 060500
TAFPDT
TAF
KPDT 060520Z 0606/0706 13007KT P6SM BKN200
     FM061800 32006KT P6SM BKN200=



000
FTUS46 KPDT 060500
TAFRDM
TAF
KRDM 060520Z 0606/0706 VRB03KT P6SM BKN200
     FM062200 35006KT P6SM SCT200=



000
FTUS46 KPDT 060500
TAFPSC
TAF
KPSC 060520Z 0606/0706 VRB04KT P6SM BKN200=



000
FTUS46 KPDT 060500
TAFYKM
TAF
KYKM 060520Z 0606/0706 27005KT P6SM BKN200
     FM062000 15005KT P6SM SCT200=



000
FTUS46 KPDT 052300
TAFDLS
TAF
KDLS 052320Z 0600/0624 32004KT P6SM BKN250
     FM060600 VRB04KT P6SM BKN250
     FM062100 32006KT P6SM SCT250=



000
FTUS46 KPDT 052300
TAFYKM
TAF
KYKM 052320Z 0600/0624 15005KT P6SM BKN250
     FM060300 28005KT P6SM BKN250
     FM062000 15005KT P6SM SCT250=



000
FTUS46 KPDT 052300
TAFPSC
TAF
KPSC 052320Z 0600/0624 VRB04KT P6SM BKN250=



000
FTUS46 KPDT 052300
TAFRDM
TAF
KRDM 052320Z 0600/0624 35005KT P6SM BKN250
     FM060400 VRB03KT P6SM BKN250
     FM062200 35006KT P6SM SCT250=



000
FTUS46 KPDT 052300
TAFALW
TAF
KALW 052320Z 0600/0624 28004KT P6SM BKN250
     FM060200 12007KT P6SM BKN250
     FM061800 29005KT P6SM SCT250=



000
FTUS46 KPDT 052300
TAFPDT
TAF
KPDT 052320Z 0600/0624 31005KT P6SM BKN250
     FM060300 14007KT P6SM BKN250
     FM061800 32006KT P6SM SCT250=



000
FTUS46 KPDT 051700
TAFDLS
TAF
KDLS 051724Z 0518/0618 32006KT P6SM BKN200
     FM060600 08004KT P6SM SCT200=



000
FTUS46 KPDT 051700
TAFPDT
TAF
KPDT 051724Z 0518/0618 31006KT P6SM BKN200
     FM060300 14007KT P6SM SCT200=



000
FTUS46 KPDT 051700
TAFALW
TAF
KALW 051724Z 0518/0618 28004KT P6SM BKN200
     FM060200 12007KT P6SM SCT200
     FM061600 VRB04KT P6SM SCT200=



000
FTUS46 KPDT 051700
TAFPSC
TAF
KPSC 051724Z 0518/0618 VRB04KT P6SM BKN200
     FM060300 VRB03KT P6SM SCT200=



000
FTUS46 KPDT 051700
TAFYKM
TAF
KYKM 051724Z 0518/0618 VRB03KT P6SM BKN200
     FM052000 13004KT P6SM BKN200
     FM060200 28005KT P6SM SCT200=



000
FTUS46 KPDT 051700
TAFRDM
TAF
KRDM 051724Z 0518/0618 VRB04KT P6SM SCT200
     FM052100 34006KT P6SM BKN200
     FM060400 VRB03KT P6SM SCT200=



000
FTUS46 KPDT 051100
TAFALW
TAF
KALW 051140Z 0512/0612 11007KT P6SM BKN180
     FM051800 26004KT P6SM BKN200
     FM060300 15007KT P6SM SCT200=



000
FTUS46 KPDT 051100
TAFPDT
TAF
KPDT 051140Z 0512/0612 12007KT P6SM SCT200
     FM051800 31006KT P6SM BKN200
     FM060300 15007KT P6SM SCT200=



000
FTUS46 KPDT 051100
TAFYKM
TAF
KYKM 051140Z 0512/0612 27006KT P6SM BKN180
     FM051800 13004KT P6SM BKN200=



000
FTUS46 KPDT 051100
TAFDLS
TAF
KDLS 051140Z 0512/0612 10005KT P6SM BKN200
     FM051800 32006KT P6SM BKN200=



000
FTUS46 KPDT 051100
TAFPSC
TAF
KPSC 051140Z 0512/0612 VRB03KT P6SM BKN180
     FM051800 VRB04KT P6SM BKN200
     FM060300 VRB03KT P6SM SCT200=



000
FTUS46 KPDT 051100
TAFRDM
TAF
KRDM 051140Z 0512/0612 VRB02KT P6SM SCT200
     FM052100 34006KT P6SM BKN200=



000
FTUS46 KPDT 051100
TAFDLS
TAF
KDLS 051140Z 0512/0612 10005KT P6SM BKN200
     FM051800 32006KT P6SM BKN200=



000
FTUS46 KPDT 051100
TAFRDM
TAF
KRDM 051140Z 0512/0612 VRB02KT P6SM SCT200
     FM052100 34006KT P6SM BKN200=



000
FTUS46 KPDT 051100
TAFPDT
TAF
KPDT 051140Z 0512/0612 12007KT P6SM SCT200
     FM051800 31006KT P6SM BKN200
     FM060300 15007KT P6SM SCT200=



000
FTUS46 KPDT 051100
TAFYKM
TAF
KYKM 051140Z 0512/0612 27006KT P6SM BKN180
     FM051800 13004KT P6SM BKN200=



000
FTUS46 KPDT 051100
TAFPSC
TAF
KPSC 051140Z 0512/0612 VRB03KT P6SM BKN180
     FM051800 VRB04KT P6SM BKN200
     FM060300 VRB03KT P6SM SCT200=



000
FTUS46 KPDT 051100
TAFALW
TAF
KALW 051140Z 0512/0612 11007KT P6SM BKN180
     FM051800 26004KT P6SM BKN200
     FM060300 15007KT P6SM SCT200=



000
FTUS46 KPDT 050500
TAFDLS
TAF
KDLS 050520Z 0506/0606 10005KT P6SM FEW250
     FM051800 32006KT P6SM BKN200=



000
FTUS46 KPDT 050500
TAFRDM
TAF
KRDM 050520Z 0506/0606 VRB02KT P6SM FEW250
     FM052100 34006KT P6SM FEW200=



000
FTUS46 KPDT 050500
TAFALW
TAF
KALW 050520Z 0506/0606 11007KT P6SM SCT250
     FM051800 26004KT P6SM BKN200=



000
FTUS46 KPDT 050500
TAFPDT
TAF
KPDT 050520Z 0506/0606 12007KT P6SM FEW250
     FM051800 31006KT P6SM BKN200=



000
FTUS46 KPDT 050500
TAFYKM
TAF
KYKM 050520Z 0506/0606 27006KT P6SM SCT250
     FM051800 13004KT P6SM BKN200=



000
FTUS46 KPDT 050500
TAFPSC
TAF
KPSC 050520Z 0506/0606 VRB03KT P6SM SCT250
     FM051800 VRB04KT P6SM BKN200=



000
FTUS46 KPDT 042300
TAFPDT
TAF
KPDT 042320Z 0500/0524 35005KT P6SM SKC
     FM050300 14008KT P6SM FEW250
     FM051800 31006KT P6SM SCT200=



000
FTUS46 KPDT 042300
TAFRDM
TAF
KRDM 042320Z 0500/0524 34005KT P6SM SKC
     FM050400 VRB04KT P6SM FEW250
     FM052100 34006KT P6SM FEW200=



000
FTUS46 KPDT 042300
TAFYKM
TAF
KYKM 042320Z 0500/0524 14006KT P6SM SKC
     FM050300 27006KT P6SM FEW250
     FM051800 13004KT P6SM SCT200=



000
FTUS46 KPDT 042300
TAFPSC
TAF
KPSC 042320Z 0500/0524 15006KT P6SM SKC
     FM050300 VRB03KT P6SM FEW250
     FM051800 VRB04KT P6SM SCT200=



000
FTUS46 KPDT 042300
TAFDLS
TAF
KDLS 042320Z 0500/0524 VRB04KT P6SM FEW250
     FM050500 10005KT P6SM FEW250
     FM051800 32006KT P6SM SCT200=



000
FTUS46 KPDT 042300
TAFALW
TAF
KALW 042320Z 0500/0524 30005KT P6SM SKC
     FM050300 12007KT P6SM FEW250
     FM051800 26004KT P6SM SCT200=



000
FTUS46 KPDT 042300
TAFYKM
TAF
KYKM 042320Z 0500/0524 14006KT P6SM SKC
     FM050300 27006KT P6SM FEW250
     FM051800 13004KT P6SM SCT200=



000
FTUS46 KPDT 042300
TAFPSC
TAF
KPSC 042320Z 0500/0524 15006KT P6SM SKC
     FM050300 VRB03KT P6SM FEW250
     FM051800 VRB04KT P6SM SCT200=



000
FTUS46 KPDT 042300
TAFDLS
TAF
KDLS 042320Z 0500/0524 VRB04KT P6SM FEW250
     FM050500 10005KT P6SM FEW250
     FM051800 32006KT P6SM SCT200=



000
FTUS46 KPDT 042300
TAFALW
TAF
KALW 042320Z 0500/0524 30005KT P6SM SKC
     FM050300 12007KT P6SM FEW250
     FM051800 26004KT P6SM SCT200=



000
FTUS46 KPDT 042300
TAFPDT
TAF
KPDT 042320Z 0500/0524 35005KT P6SM SKC
     FM050300 14008KT P6SM FEW250
     FM051800 31006KT P6SM SCT200=



000
FTUS46 KPDT 042300
TAFRDM
TAF
KRDM 042320Z 0500/0524 34005KT P6SM SKC
     FM050400 VRB04KT P6SM FEW250
     FM052100 34006KT P6SM FEW200=



000
FTUS46 KPDT 041700
TAFRDM
TAF
KRDM 041720Z 0418/0518 VRB03KT P6SM SKC
     FM042200 35005KT P6SM SKC
     FM050400 VRB04KT P6SM SKC=



000
FTUS46 KPDT 041700
TAFYKM
TAF
KYKM 041720Z 0418/0518 14005KT P6SM SKC
     FM050300 27005KT P6SM SKC=



000
FTUS46 KPDT 041700
TAFDLS
TAF
KDLS 041720Z 0418/0518 VRB05KT P6SM SKC
     FM050500 10005KT P6SM SKC=



000
FTUS46 KPDT 041700
TAFYKM
TAF
KYKM 041720Z 0418/0518 14005KT P6SM SKC
     FM050300 27005KT P6SM SKC=



000
FTUS46 KPDT 041700
TAFPDT
TAF
KPDT 041720Z 0418/0518 14007KT P6SM SKC
     FM042000 34005KT P6SM SKC
     FM050300 14008KT P6SM SKC=



000
FTUS46 KPDT 041700
TAFPSC
TAF
KPSC 041720Z 0418/0518 VRB03KT P6SM SKC
     FM042100 15004KT P6SM SKC
     FM050300 03005KT P6SM SKC=



000
FTUS46 KPDT 041700
TAFALW
TAF
KALW 041720Z 0418/0518 24005KT P6SM SKC
     FM050300 11007KT P6SM SKC
     FM051600 22004KT P6SM SKC=



000
FTUS46 KPDT 041700
TAFRDM
TAF
KRDM 041720Z 0418/0518 VRB03KT P6SM SKC
     FM042200 35005KT P6SM SKC
     FM050400 VRB04KT P6SM SKC=



000
FTUS46 KPDT 041700
TAFPSC
TAF
KPSC 041720Z 0418/0518 VRB03KT P6SM SKC
     FM042100 15004KT P6SM SKC
     FM050300 03005KT P6SM SKC=



000
FTUS46 KPDT 041700
TAFALW
TAF
KALW 041720Z 0418/0518 24005KT P6SM SKC
     FM050300 11007KT P6SM SKC
     FM051600 22004KT P6SM SKC=



000
FTUS46 KPDT 041700
TAFPDT
TAF
KPDT 041720Z 0418/0518 14007KT P6SM SKC
     FM042000 34005KT P6SM SKC
     FM050300 14008KT P6SM SKC=



000
FTUS46 KPDT 041700
TAFDLS
TAF
KDLS 041720Z 0418/0518 VRB05KT P6SM SKC
     FM050500 10005KT P6SM SKC=



000
FTUS46 KPDT 041100
TAFYKM
TAF
KYKM 041140Z 0412/0512 26005KT P6SM SKC
     FM041800 VRB04KT P6SM SKC
     FM050300 25005KT P6SM SKC=



000
FTUS46 KPDT 041100
TAFPDT
TAF
KPDT 041140Z 0412/0512 14008KT P6SM SKC
     FM041900 02005KT P6SM SKC
     FM050300 14008KT P6SM SKC=



000
FTUS46 KPDT 041100
TAFRDM
TAF
KRDM 041140Z 0412/0512 VRB03KT P6SM SKC
     FM042100 35005KT P6SM SKC
     FM050400 VRB03KT P6SM SKC=



000
FTUS46 KPDT 041100
TAFDLS
TAF
KDLS 041140Z 0412/0512 VRB03KT P6SM SKC
     FM042000 VRB05KT P6SM SKC=



000
FTUS46 KPDT 041100
TAFALW
TAF
KALW 041140Z 0412/0512 11008KT P6SM SKC
     FM041700 25004KT P6SM SKC
     FM050300 12005KT P6SM SKC=



000
FTUS46 KPDT 041100
TAFPSC
TAF
KPSC 041140Z 0412/0512 VRB02KT P6SM SKC
     FM042100 VRB05KT P6SM SKC=



000
FTUS46 KPDT 040500
TAFPDT
TAF
KPDT 040520Z 0406/0506 13005KT P6SM SKC
     FM041900 35005KT P6SM SKC
     FM050300 14005KT P6SM SKC=



000
FTUS46 KPDT 040500
TAFRDM
TAF
KRDM 040520Z 0406/0506 VRB03KT P6SM SKC
     FM042100 35005KT P6SM SKC
     FM050400 VRB03KT P6SM SKC=



000
FTUS46 KPDT 040500
TAFDLS
TAF
KDLS 040520Z 0406/0506 VRB03KT P6SM SKC
     FM042000 VRB05KT P6SM SKC=



000
FTUS46 KPDT 040500
TAFYKM
TAF
KYKM 040520Z 0406/0506 26005KT P6SM SKC
     FM041800 VRB04KT P6SM SKC
     FM050300 25005KT P6SM SKC=



000
FTUS46 KPDT 040500
TAFALW
TAF
KALW 040520Z 0406/0506 11006KT P6SM SKC
     FM041700 25004KT P6SM SKC
     FM050300 12005KT P6SM SKC=



000
FTUS46 KPDT 040500
TAFPSC
TAF
KPSC 040520Z 0406/0506 VRB02KT P6SM SKC
     FM042100 VRB05KT P6SM SKC=



000
FTUS46 KPDT 032300
TAFALW
TAF
KALW 032320Z 0400/0424 VRB05KT P6SM SKC
     FM040500 13007KT P6SM FEW150
     FM041700 25004KT P6SM SKC=



000
FTUS46 KPDT 032300
TAFPSC
TAF
KPSC 032320Z 0400/0424 VRB04KT P6SM SKC
     FM040800 VRB03KT P6SM FEW150
     FM041600 VRB04KT P6SM SKC=



000
FTUS46 KPDT 032300
TAFPDT
TAF
KPDT 032320Z 0400/0424 34008KT P6SM FEW050
     FM040200 13005KT P6SM SKC
     FM041200 14005KT P6SM FEW150
     FM041900 35005KT P6SM SKC=



000
FTUS46 KPDT 032300
TAFYKM
TAF
KYKM 032320Z 0400/0424 VRB05KT P6SM SKC
     FM040300 27007KT P6SM FEW150
     FM041800 VRB04KT P6SM SKC=



000
FTUS46 KPDT 032300
TAFDLS
TAF
KDLS 032320Z 0400/0424 08005KT P6SM FEW250
     FM040200 VRB03KT P6SM SKC
     FM040600 10004KT P6SM SKC
     FM042000 VRB05KT P6SM SKC=



000
FTUS46 KPDT 032300
TAFRDM
TAF
KRDM 032320Z 0400/0424 34007KT P6SM SKC
     FM040300 VRB03KT P6SM SKC
     FM040700 15004KT P6SM SKC
     FM042200 35005KT P6SM SKC=



000
FTUS46 KPDT 031700
TAFYKM
TAF
KYKM 031720Z 0318/0418 VRB04KT P6SM SKC
     FM032200 15005KT P6SM SKC
     FM040300 27007KT P6SM SKC=



000
FTUS46 KPDT 031700
TAFPDT
TAF
KPDT 031720Z 0318/0418 33004KT P6SM SKC
     FM032000 34008KT P6SM SKC
     FM040200 13005KT P6SM SKC=



000
FTUS46 KPDT 031700
TAFDLS
TAF
KDLS 031720Z 0318/0418 VRB03KT P6SM FEW070
     FM032000 08005KT P6SM SKC
     FM040200 VRB03KT P6SM SKC=



000
FTUS46 KPDT 031700
TAFPSC
TAF
KPSC 031720Z 0318/0418 35004KT P6SM SKC
     FM032300 VRB04KT P6SM SKC=



000
FTUS46 KPDT 031700
TAFALW
TAF
KALW 031720Z 0318/0418 23004KT P6SM SKC
     FM032100 27005KT P6SM SKC
     FM040200 VRB04KT P6SM SKC
     FM040500 13007KT P6SM SKC=



000
FTUS46 KPDT 031700
TAFRDM
TAF
KRDM 031720Z 0318/0418 32005KT P6SM SKC
     FM032100 35007KT P6SM SKC
     FM040300 VRB03KT P6SM SKC
     FM040700 15004KT P6SM SKC=



000
FTUS46 KPDT 031700
TAFALW
TAF
KALW 031720Z 0318/0418 23004KT P6SM SKC
     FM032100 27005KT P6SM SKC
     FM040200 VRB04KT P6SM SKC
     FM040500 13007KT P6SM SKC=



000
FTUS46 KPDT 031700
TAFDLS
TAF
KDLS 031720Z 0318/0418 VRB03KT P6SM FEW070
     FM032000 08005KT P6SM SKC
     FM040200 VRB03KT P6SM SKC=



000
FTUS46 KPDT 031700
TAFPSC
TAF
KPSC 031720Z 0318/0418 35004KT P6SM SKC
     FM032300 VRB04KT P6SM SKC=



000
FTUS46 KPDT 031700
TAFYKM
TAF
KYKM 031720Z 0318/0418 VRB04KT P6SM SKC
     FM032200 15005KT P6SM SKC
     FM040300 27007KT P6SM SKC=



000
FTUS46 KPDT 031700
TAFRDM
TAF
KRDM 031720Z 0318/0418 32005KT P6SM SKC
     FM032100 35007KT P6SM SKC
     FM040300 VRB03KT P6SM SKC
     FM040700 15004KT P6SM SKC=



000
FTUS46 KPDT 031500 AAA
TAFRDM
TAF AMD
KRDM 031504Z 0315/0412 32005KT P6SM OVC050
     FM031700 35005KT P6SM SCT050
     FM031900 35007KT P6SM SKC
     FM040400 VRB03KT P6SM SKC=



000
FTUS46 KPDT 031400 AAB
TAFALW
TAF AMD
KALW 031457Z 0315/0412 VRB03KT P6SM FEW040 FEW070
     FM031700 22004KT P6SM FEW040 FEW070
     FM031900 30005KT P6SM SKC
     FM040300 14006KT P6SM FEW250
     FM040900 14004KT P6SM SCT200=



000
FTUS46 KPDT 031400 AAB
TAFALW
TAF AMD
KALW 031457Z 0315/0412 VRB03KT P6SM FEW040 FEW070
     FM031700 22004KT P6SM FEW040 FEW070
     FM031900 30005KT P6SM SKC
     FM040300 14006KT P6SM FEW250
     FM040900 14004KT P6SM SCT200=



000
FTUS46 KPDT 031100 AAA
TAFALW
TAF AMD
KALW 031158Z 0312/0412 VRB05KT P6SM SCT023 SCT060
     FM031600 21005KT P6SM BKN023
     FM031900 30005KT P6SM FEW025
     FM040300 14006KT P6SM FEW250
     FM040900 14004KT P6SM SCT200=



000
FTUS46 KPDT 031100
TAFRDM
TAF
KRDM 031140Z 0312/0412 34004KT P6SM SCT070
     FM031800 35007KT P6SM SKC
     FM040400 VRB03KT P6SM SKC=



000
FTUS46 KPDT 031100
TAFRDM
TAF
KRDM 031140Z 0312/0412 34004KT P6SM SCT070
     FM031800 35007KT P6SM SKC
     FM040400 VRB03KT P6SM SKC=



000
FTUS46 KPDT 031100
TAFYKM
TAF
KYKM 031140Z 0312/0412 33006KT P6SM SKC
     FM031800 VRB04KT P6SM SKC
     FM040200 25005KT P6SM SKC=



000
FTUS46 KPDT 031100
TAFALW
TAF
KALW 031140Z 0312/0412 VRB06KT P6SM SKC
     FM031500 23005KT P6SM SKC
     FM040200 14006KT P6SM SKC=



000
FTUS46 KPDT 031100
TAFPSC
TAF
KPSC 031140Z 0312/0412 31005KT P6SM SKC
     FM031600 34004KT P6SM SKC
     FM040300 VRB03KT P6SM SKC=



000
FTUS46 KPDT 031100
TAFPDT
TAF
KPDT 031140Z 0312/0412 28006KT P6SM SCT025
     FM031900 32008KT P6SM SKC
     FM040200 13005KT P6SM SKC=



000
FTUS46 KPDT 031100
TAFDLS
TAF
KDLS 031140Z 0312/0412 VRB03KT P6SM FEW100
     FM031800 08005KT P6SM SKC
     FM040200 VRB03KT P6SM SKC=



000
FTUS46 KPDT 031100
TAFDLS
TAF
KDLS 031140Z 0312/0412 VRB03KT P6SM FEW100
     FM031800 08005KT P6SM SKC
     FM040200 VRB03KT P6SM SKC=



000
FTUS46 KPDT 031100
TAFPDT
TAF
KPDT 031140Z 0312/0412 28006KT P6SM SCT025
     FM031900 32008KT P6SM SKC
     FM040200 13005KT P6SM SKC=



000
FTUS46 KPDT 031100
TAFALW
TAF
KALW 031140Z 0312/0412 VRB06KT P6SM SKC
     FM031500 23005KT P6SM SKC
     FM040200 14006KT P6SM SKC=



000
FTUS46 KPDT 031100
TAFPSC
TAF
KPSC 031140Z 0312/0412 31005KT P6SM SKC
     FM031600 34004KT P6SM SKC
     FM040300 VRB03KT P6SM SKC=



000
FTUS46 KPDT 031100
TAFYKM
TAF
KYKM 031140Z 0312/0412 33006KT P6SM SKC
     FM031800 VRB04KT P6SM SKC
     FM040200 25005KT P6SM SKC=



    US Dept of Commerce
    National Oceanic and Atmospheric Administration
    National Weather Service
    1325 East West Highway
    Silver Spring, MD 20910
    Page Author: NWS Internet Services Team
Disclaimer
Information Quality
Credits
Glossary
Privacy Policy
Freedom of Information Act (FOIA)
About Us
Career Opportunities